DAUO

Details ICAO DAUO (ELU)
Name GUEMAR
Region Algeria
Timezone Africa/Algiers (UTC+1.0)
Plans Departing 5
Arriving 2
Stats Elevation 203 ft / 62 m (AMSL)
Location 33.511417° 6.776769°
Runways 2
Magnetic Variation 1.635° E
Sunrise 2017-12-15 06:31:06 UTC / 2017-12-15 07:31:06 Local
Sunset 2017-12-15 16:27:46 UTC / 2017-12-15 17:27:46 Local
Advertisement - Login to hide

Runways

ID Width Length Bearing (true) Bearing (mag) Surface Threshold Offset Overrun Length
02 98 ft / 30 m 6,576 ft / 2,005 m 17.92° 16.29° Asphalt 0 ft / 0 m 203 ft / 62 m
13 148 ft / 45 m 9,867 ft / 3,007 m 130.33° 128.70° Asphalt 0 ft / 0 m 200 ft / 61 m
20 98 ft / 30 m 6,576 ft / 2,005 m 197.93° 196.30° Asphalt 0 ft / 0 m 0 ft / 0 m
31 148 ft / 45 m 9,867 ft / 3,007 m 310.34° 308.71° Asphalt 0 ft / 0 m 194 ft / 59 m

Map

Weather


0- 5 10 15 20 25 30 35+ Temperature / ° C

Clouds and Precipitation
Forecast for 2017-12-15 00:00 UTC. Updated an hour ago

Ground ~20,000 ft ~40,000 ft Winds

METAR

DAUO 150000Z 20005KT CAVOK 09/03 Q1021

TAF

Not found

Frequencies

Tower 119.70 MHz EL OUED TWR
Warning: Do not use this data for real-world aviation or navigation. No guarantee of current accuracy is given.